Aérodrome :
LOGIN :

S'inscrire | Disclaimer

   EN    FR    IT 

 










Légende :    VFR   VFR Marginal   IFR   IFR Intensif   IFR Très Intensif
Visi : 
Plafond : 
>= 8 km
>= 3000ft
5 à 8 km
1000 à 3000 ft
1500m à 5 km
500 à 1000 ft
800 à 1500m
200 à 500 ft
< 800m
< 200 ft
Symboles :   Orages  Brouillard  Fortes neiges  Fortes précipitations  Vent > 20 kt
SIGMETs :   Divers  Orages  Givrage  Turbulence  Onde Orograph.  Cendres Volcan.






- Altitude de l'aérodrome : 62 ft
- Code IATA : ARH


ULAA - Talagi

DERNIER METAR :
  • 090600Z 24004MPS 210V270 9999 -SHRA BKN014CB 04/M01 Q0993 R26/910565 NOSIG RMK QFE743/0991

METARs EXPIRÉS :
  • 090530Z 25004MPS 210V290 9999 SCT020 04/M02 Q0993 R26/910565 NOSIG RMK QFE743/0991
  • 090500Z 25004MPS 210V290 CAVOK 04/M02 Q0993 R26/910565 NOSIG RMK QFE743/0991
  • 090430Z 25004MPS 210V280 CAVOK 04/M02 Q0993 R26/910565 NOSIG RMK QFE743/0991
  • 090400Z 25004MPS 210V020 CAVOK 04/M03 Q0993 R26/910565 NOSIG RMK QFE743/0991
  • 090330Z 25004MPS 200V290 CAVOK 04/M03 Q0994 R26/910565 NOSIG RMK QFE744/0992

TAF TAF ULAA
Valide du 09 à 06h jusqu'au 10 à 06h UTC


090500Z 0906/1006 26004MPS 9999 BKN016
TEMPO 0906/0915 21004G12MPS 6000 -SHRA FEW007 BKN011CB
BECMG 0915/0917 30004G11MPS



MET'MAP, la Météo Aéronautique d'un coup d'oeil ! - Copyright ORBIFLY Décembre 2007 - Disclaimer

ORBIFLY MET'MAP TEAM :

Programmation & Développement : Alexandra Zaïnal
Sur une idée originale de : Baudouin d'Aumeries
Assistance à la programmation : Marc-Olivier Méhu
Soutien technique & logistique : Manuel Goepfert

Contact : metmap@orbifly.com




SOURCES & CREDITS :

   NOAA